sensor_id;sensor_type;location;lat;lon;timestamp;pressure;altitude;pressure_sealevel;temperature;humidity
42105;BME280;70664;51.472;5.712;2023-07-20T00:01:24;101213.91;;;22.27;56.97
42105;BME280;70664;51.472;5.712;2023-07-20T00:03:50;101217.44;;;22.26;56.62
42105;BME280;70664;51.472;5.712;2023-07-20T00:06:22;101220.03;;;22.26;56.98
42105;BME280;70664;51.472;5.712;2023-07-20T00:08:48;101216.56;;;22.26;56.82
42105;BME280;70664;51.472;5.712;2023-07-20T00:11:13;101220.97;;;22.25;57.11
42105;BME280;70664;51.472;5.712;2023-07-20T00:13:40;101213.03;;;22.27;56.32
42105;BME280;70664;51.472;5.712;2023-07-20T00:16:06;101228.81;;;22.25;56.73
42105;BME280;70664;51.472;5.712;2023-07-20T00:18:32;101218.38;;;22.24;56.64
42105;BME280;70664;51.472;5.712;2023-07-20T00:20:58;101223.63;;;22.24;56.93
42105;BME280;70664;51.472;5.712;2023-07-20T00:23:25;101223.63;;;22.24;57.09
42105;BME280;70664;51.472;5.712;2023-07-20T00:25:52;101225.31;;;22.25;56.19
42105;BME280;70664;51.472;5.712;2023-07-20T00:28:17;101214.84;;;22.25;56.49
42105;BME280;70664;51.472;5.712;2023-07-20T00:30:43;101217.44;;;22.26;56.60
42105;BME280;70664;51.472;5.712;2023-07-20T00:33:11;101208.81;;;22.23;56.88
42105;BME280;70664;51.472;5.712;2023-07-20T00:35:38;101214.06;;;22.23;56.32
42105;BME280;70664;51.472;5.712;2023-07-20T00:38:05;101207.06;;;22.23;56.75
42105;BME280;70664;51.472;5.712;2023-07-20T00:40:41;101207.97;;;22.22;56.84
42105;BME280;70664;51.472;5.712;2023-07-20T00:43:08;101210.53;;;22.24;56.21
42105;BME280;70664;51.472;5.712;2023-07-20T00:45:34;101210.41;;;22.27;56.37
42105;BME280;70664;51.472;5.712;2023-07-20T00:48:02;101220.09;;;22.25;56.23
42105;BME280;70664;51.472;5.712;2023-07-20T00:50:30;101218.47;;;22.22;56.50
42105;BME280;70664;51.472;5.712;2023-07-20T00:52:56;101214.94;;;22.23;56.48
42105;BME280;70664;51.472;5.712;2023-07-20T00:55:24;101213.25;;;22.21;56.58
42105;BME280;70664;51.472;5.712;2023-07-20T00:57:51;101214.97;;;22.22;56.38
42105;BME280;70664;51.472;5.712;2023-07-20T01:00:17;101212.34;;;22.22;56.24
42105;BME280;70664;51.472;5.712;2023-07-20T01:02:43;101220.28;;;22.20;56.36
42105;BME280;70664;51.472;5.712;2023-07-20T01:05:09;101217.66;;;22.20;56.26
42105;BME280;70664;51.472;5.712;2023-07-20T01:07:59;101219.38;;;22.21;56.06
42105;BME280;70664;51.472;5.712;2023-07-20T01:10:50;101219.41;;;22.20;56.34
42105;BME280;70664;51.472;5.712;2023-07-20T01:13:20;101217.78;;;22.17;56.34
42105;BME280;70664;51.472;5.712;2023-07-20T01:15:53;101214.25;;;22.18;56.54
42105;BME280;70664;51.472;5.712;2023-07-20T01:18:19;101216.06;;;22.16;56.36
42105;BME280;70664;51.472;5.712;2023-07-20T01:20:45;101220.31;;;22.19;56.39
42105;BME280;70664;51.472;5.712;2023-07-20T01:29:32;101216.06;;;22.16;56.07
42105;BME280;70664;51.472;5.712;2023-07-20T01:32:00;101223.94;;;22.16;56.20
42105;BME280;70664;51.472;5.712;2023-07-20T01:34:29;101220.53;;;22.14;56.46
42105;BME280;70664;51.472;5.712;2023-07-20T01:36:56;101218.78;;;22.14;56.37
42105;BME280;70664;51.472;5.712;2023-07-20T01:39:23;101218.78;;;22.14;56.08
42105;BME280;70664;51.472;5.712;2023-07-20T01:41:49;101210.91;;;22.14;56.23
42105;BME280;70664;51.472;5.712;2023-07-20T01:44:15;101215.25;;;22.15;56.40
42105;BME280;70664;51.472;5.712;2023-07-20T01:46:41;101217.91;;;22.14;56.40
42105;BME280;70664;51.472;5.712;2023-07-20T01:49:07;101219.69;;;22.13;56.20
42105;BME280;70664;51.472;5.712;2023-07-20T01:51:33;101222.34;;;22.12;56.59
42105;BME280;70664;51.472;5.712;2023-07-20T01:53:58;101224.97;;;22.12;56.52
42105;BME280;70664;51.472;5.712;2023-07-20T01:56:25;101225.88;;;22.11;56.55
42105;BME280;70664;51.472;5.712;2023-07-20T01:58:51;101230.28;;;22.10;56.42
42105;BME280;70664;51.472;5.712;2023-07-20T02:01:16;101227.66;;;22.10;56.30
42105;BME280;70664;51.472;5.712;2023-07-20T02:03:42;101222.41;;;22.10;56.62
42105;BME280;70664;51.472;5.712;2023-07-20T02:06:08;101230.28;;;22.10;56.19
42105;BME280;70664;51.472;5.712;2023-07-20T02:08:34;101232.88;;;22.10;56.54
42105;BME280;70664;51.472;5.712;2023-07-20T02:11:00;101232.03;;;22.10;56.32
42105;BME280;70664;51.472;5.712;2023-07-20T02:13:25;101233.81;;;22.09;56.31
42105;BME280;70664;51.472;5.712;2023-07-20T02:15:51;101225.97;;;22.08;56.28
42105;BME280;70664;51.472;5.712;2023-07-20T02:18:17;101226.84;;;22.08;56.63
42105;BME280;70664;51.472;5.712;2023-07-20T02:20:43;101230.28;;;22.10;56.24
42105;BME280;70664;51.472;5.712;2023-07-20T02:23:09;101235.63;;;22.07;56.62
42105;BME280;70664;51.472;5.712;2023-07-20T02:25:35;101232.94;;;22.09;56.47
42105;BME280;70664;51.472;5.712;2023-07-20T02:28:01;101233.81;;;22.09;56.47
42105;BME280;70664;51.472;5.712;2023-07-20T02:30:26;101238.25;;;22.07;56.16
42105;BME280;70664;51.472;5.712;2023-07-20T02:32:53;101239.94;;;22.08;56.64
42105;BME280;70664;51.472;5.712;2023-07-20T02:35:19;101242.59;;;22.07;56.72
42105;BME280;70664;51.472;5.712;2023-07-20T02:37:44;101247.84;;;22.07;56.61
42105;BME280;70664;51.472;5.712;2023-07-20T02:40:11;101248.72;;;22.07;56.34
42105;BME280;70664;51.472;5.712;2023-07-20T02:42:36;101254.88;;;22.06;56.40
42105;BME280;70664;51.472;5.712;2023-07-20T02:45:03;101245.31;;;22.05;56.40
42105;BME280;70664;51.472;5.712;2023-07-20T02:47:30;101250.53;;;22.05;56.60
42105;BME280;70664;51.472;5.712;2023-07-20T02:49:56;101246.22;;;22.04;56.35
42105;BME280;70664;51.472;5.712;2023-07-20T02:52:22;101248.84;;;22.04;56.70
42105;BME280;70664;51.472;5.712;2023-07-20T02:54:48;101247.06;;;22.05;56.51
42105;BME280;70664;51.472;5.712;2023-07-20T02:57:14;101251.44;;;22.04;56.67
42105;BME280;70664;51.472;5.712;2023-07-20T02:59:40;101254.00;;;22.06;56.59
42105;BME280;70664;51.472;5.712;2023-07-20T03:02:06;101255.81;;;22.04;56.84
42105;BME280;70664;51.472;5.712;2023-07-20T03:04:35;101261.91;;;22.04;56.60
42105;BME280;70664;51.472;5.712;2023-07-20T03:07:05;101272.44;;;22.03;56.23
42105;BME280;70664;51.472;5.712;2023-07-20T03:09:32;101268.97;;;22.02;56.51
42105;BME280;70664;51.472;5.712;2023-07-20T03:11:58;101265.44;;;22.03;56.64
42105;BME280;70664;51.472;5.712;2023-07-20T03:14:24;101268.91;;;22.04;56.56
42105;BME280;70664;51.472;5.712;2023-07-20T03:16:50;101268.06;;;22.03;56.51
42105;BME280;70664;51.472;5.712;2023-07-20T03:19:16;101273.31;;;22.03;56.77
42105;BME280;70664;51.472;5.712;2023-07-20T03:21:42;101275.06;;;22.03;56.87
42105;BME280;70664;51.472;5.712;2023-07-20T03:24:08;101274.22;;;22.02;56.69
42105;BME280;70664;51.472;5.712;2023-07-20T03:26:35;101274.22;;;22.02;56.98
42105;BME280;70664;51.472;5.712;2023-07-20T03:29:03;101282.06;;;22.02;56.55
42105;BME280;70664;51.472;5.712;2023-07-20T03:31:29;101274.28;;;22.00;56.84
42105;BME280;70664;51.472;5.712;2023-07-20T03:33:55;101276.91;;;22.00;56.88
42105;BME280;70664;51.472;5.712;2023-07-20T03:36:21;101282.97;;;22.01;56.93
42105;BME280;70664;51.472;5.712;2023-07-20T03:38:46;101283.84;;;22.02;56.56
42105;BME280;70664;51.472;5.712;2023-07-20T03:41:12;101286.47;;;22.02;56.89
42105;BME280;70664;51.472;5.712;2023-07-20T03:43:38;101290.91;;;21.99;56.93
42105;BME280;70664;51.472;5.712;2023-07-20T03:46:04;101290.91;;;21.99;56.92
42105;BME280;70664;51.472;5.712;2023-07-20T03:48:33;101290.09;;;21.97;57.17
42105;BME280;70664;51.472;5.712;2023-07-20T03:50:59;101298.75;;;21.99;57.08
42105;BME280;70664;51.472;5.712;2023-07-20T03:53:26;101297.88;;;21.99;56.84
42105;BME280;70664;51.472;5.712;2023-07-20T03:55:53;101295.28;;;21.99;56.44
42105;BME280;70664;51.472;5.712;2023-07-20T03:58:20;101299.66;;;21.98;56.62
42105;BME280;70664;51.472;5.712;2023-07-20T04:00:48;101296.19;;;21.98;56.86
42105;BME280;70664;51.472;5.712;2023-07-20T04:03:16;101299.66;;;21.98;56.54
42105;BME280;70664;51.472;5.712;2023-07-20T04:05:43;101308.38;;;21.99;56.74
42105;BME280;70664;51.472;5.712;2023-07-20T04:08:09;101301.41;;;21.98;57.16
42105;BME280;70664;51.472;5.712;2023-07-20T04:10:37;101304.03;;;21.98;56.97
42105;BME280;70664;51.472;5.712;2023-07-20T04:13:04;101299.72;;;21.97;56.89
42105;BME280;70664;51.472;5.712;2023-07-20T04:15:30;101309.34;;;21.96;56.95
42105;BME280;70664;51.472;5.712;2023-07-20T04:17:56;101304.94;;;21.97;56.79
42105;BME280;70664;51.472;5.712;2023-07-20T04:20:23;101305.03;;;21.95;57.06
42105;BME280;70664;51.472;5.712;2023-07-20T04:22:49;101308.47;;;21.96;56.88
42105;BME280;70664;51.472;5.712;2023-07-20T04:25:17;101298.91;;;21.95;56.57
42105;BME280;70664;51.472;5.712;2023-07-20T04:27:43;101304.94;;;21.97;56.73
42105;BME280;70664;51.472;5.712;2023-07-20T04:30:10;101306.72;;;21.96;56.72
42105;BME280;70664;51.472;5.712;2023-07-20T04:32:37;101302.41;;;21.95;56.53
42105;BME280;70664;51.472;5.712;2023-07-20T04:35:07;101307.63;;;21.95;56.81
42105;BME280;70664;51.472;5.712;2023-07-20T04:37:35;101306.75;;;21.95;56.75
42105;BME280;70664;51.472;5.712;2023-07-20T04:40:01;101310.25;;;21.95;56.82
42105;BME280;70664;51.472;5.712;2023-07-20T04:42:27;101305.94;;;21.94;56.45
42105;BME280;70664;51.472;5.712;2023-07-20T04:44:53;101304.22;;;21.93;56.75
42105;BME280;70664;51.472;5.712;2023-07-20T04:47:19;101311.09;;;21.96;56.66
42105;BME280;70664;51.472;5.712;2023-07-20T04:49:44;101319.84;;;21.95;56.43
42105;BME280;70664;51.472;5.712;2023-07-20T04:52:10;101317.25;;;21.95;56.80
42105;BME280;70664;51.472;5.712;2023-07-20T04:54:36;101319.00;;;21.94;56.58
42105;BME280;70664;51.472;5.712;2023-07-20T04:57:02;101321.63;;;21.94;56.63
42105;BME280;70664;51.472;5.712;2023-07-20T04:59:28;101325.16;;;21.93;56.94
42105;BME280;70664;51.472;5.712;2023-07-20T05:01:54;101327.78;;;21.93;56.84
42105;BME280;70664;51.472;5.712;2023-07-20T05:04:19;101326.06;;;21.92;56.82
42105;BME280;70664;51.472;5.712;2023-07-20T05:06:45;101327.78;;;21.93;56.82
42105;BME280;70664;51.472;5.712;2023-07-20T05:09:11;101316.50;;;21.91;57.03
42105;BME280;70664;51.472;5.712;2023-07-20T05:11:37;101313.81;;;21.93;56.57
42105;BME280;70664;51.472;5.712;2023-07-20T05:14:02;101312.88;;;21.95;56.92
42105;BME280;70664;51.472;5.712;2023-07-20T05:16:28;101307.53;;;21.98;56.74
42105;BME280;70664;51.472;5.712;2023-07-20T05:18:54;101312.75;;;21.98;56.60
42105;BME280;70664;51.472;5.712;2023-07-20T05:21:20;101315.31;;;22.00;56.56
42105;BME280;70664;51.472;5.712;2023-07-20T05:23:45;101316.19;;;22.00;56.76
42105;BME280;70664;51.472;5.712;2023-07-20T05:26:11;101318.78;;;22.00;56.79
42105;BME280;70664;51.472;5.712;2023-07-20T05:28:37;101312.56;;;22.03;56.61
42105;BME280;70664;51.472;5.712;2023-07-20T05:31:03;101316.91;;;22.04;57.00
42105;BME280;70664;51.472;5.712;2023-07-20T05:33:29;101316.78;;;22.07;56.47
42105;BME280;70664;51.472;5.712;2023-07-20T05:35:55;101322.94;;;22.06;57.02
42105;BME280;70664;51.472;5.712;2023-07-20T05:38:21;101329.00;;;22.07;56.76
42105;BME280;70664;51.472;5.712;2023-07-20T05:40:47;101328.09;;;22.08;57.07
42105;BME280;70664;51.472;5.712;2023-07-20T05:43:13;101329.88;;;22.07;57.32
42105;BME280;70664;51.472;5.712;2023-07-20T05:45:43;101329.81;;;22.09;56.24
42105;BME280;70664;51.472;5.712;2023-07-20T05:48:10;101336.88;;;22.07;56.99
42105;BME280;70664;51.472;5.712;2023-07-20T05:50:43;101333.31;;;22.09;57.12
42105;BME280;70664;51.472;5.712;2023-07-20T05:53:09;101338.59;;;22.08;56.96
42105;BME280;70664;51.472;5.712;2023-07-20T05:55:35;101336.97;;;22.04;56.87
42105;BME280;70664;51.472;5.712;2023-07-20T05:58:01;101339.66;;;22.02;57.14
42105;BME280;70664;51.472;5.712;2023-07-20T06:00:27;101337.13;;;22.00;57.31
42105;BME280;70664;51.472;5.712;2023-07-20T06:02:53;101342.28;;;22.02;57.29
42105;BME280;70664;51.472;5.712;2023-07-20T06:05:21;101350.03;;;22.05;56.86
42105;BME280;70664;51.472;5.712;2023-07-20T06:07:47;101352.69;;;22.04;57.16
42105;BME280;70664;51.472;5.712;2023-07-20T06:10:13;101354.53;;;22.02;57.33
42105;BME280;70664;51.472;5.712;2023-07-20T06:12:39;101362.31;;;22.03;56.93
42105;BME280;70664;51.472;5.712;2023-07-20T06:15:05;101366.59;;;22.06;56.63
42105;BME280;70664;51.472;5.712;2023-07-20T06:17:32;101362.31;;;22.03;56.74
42105;BME280;70664;51.472;5.712;2023-07-20T06:19:58;101357.09;;;22.03;57.02
42105;BME280;70664;51.472;5.712;2023-07-20T06:22:24;101363.06;;;22.07;56.61
42105;BME280;70664;51.472;5.712;2023-07-20T06:24:50;101357.94;;;22.04;56.91
42105;BME280;70664;51.472;5.712;2023-07-20T06:27:15;101367.44;;;22.06;57.46
42105;BME280;70664;51.472;5.712;2023-07-20T06:29:42;101365.56;;;22.10;56.31
42105;BME280;70664;51.472;5.712;2023-07-20T06:32:08;101358.81;;;22.04;57.19
42105;BME280;70664;51.472;5.712;2023-07-20T06:34:33;101364.94;;;22.03;57.50
42105;BME280;70664;51.472;5.712;2023-07-20T06:37:04;101357.81;;;22.07;57.24
42105;BME280;70664;51.472;5.712;2023-07-20T06:39:30;101364.72;;;22.09;57.62
42105;BME280;70664;51.472;5.712;2023-07-20T06:41:55;101368.28;;;22.07;57.67
42105;BME280;70664;51.472;5.712;2023-07-20T06:44:21;101369.06;;;22.10;57.04
42105;BME280;70664;51.472;5.712;2023-07-20T06:46:47;101366.53;;;22.07;56.97
42105;BME280;70664;51.472;5.712;2023-07-20T06:49:26;101365.78;;;22.04;57.19
42105;BME280;70664;51.472;5.712;2023-07-20T06:51:52;101363.97;;;22.06;57.11
42105;BME280;70664;51.472;5.712;2023-07-20T06:54:18;101368.25;;;22.08;57.17
42105;BME280;70664;51.472;5.712;2023-07-20T06:56:44;101362.94;;;22.10;57.26
42105;BME280;70664;51.472;5.712;2023-07-20T06:59:10;101363.84;;;22.09;57.50
42105;BME280;70664;51.472;5.712;2023-07-20T07:01:36;101356.19;;;22.04;57.16
42105;BME280;70664;51.472;5.712;2023-07-20T07:04:02;101365.69;;;22.07;57.19
42105;BME280;70664;51.472;5.712;2023-07-20T07:06:28;101375.34;;;22.05;57.43
42105;BME280;70664;51.472;5.712;2023-07-20T07:08:54;101371.03;;;22.04;57.45
42105;BME280;70664;51.472;5.712;2023-07-20T07:11:21;101377.13;;;22.04;57.47
42105;BME280;70664;51.472;5.712;2023-07-20T07:13:47;101368.47;;;22.02;57.51
42105;BME280;70664;51.472;5.712;2023-07-20T07:16:16;101377.16;;;22.03;57.38
42105;BME280;70664;51.472;5.712;2023-07-20T07:18:45;101375.41;;;22.03;57.53
42105;BME280;70664;51.472;5.712;2023-07-20T07:21:11;101379.50;;;21.87;55.79
42105;BME280;70664;51.472;5.712;2023-07-20T07:23:39;101377.25;;;21.76;55.78
42105;BME280;70664;51.472;5.712;2023-07-20T07:26:05;101380.41;;;21.85;55.83
42105;BME280;70664;51.472;5.712;2023-07-20T07:28:31;101375.00;;;21.90;56.39
42105;BME280;70664;51.472;5.712;2023-07-20T07:30:57;101381.84;;;21.94;56.31
42105;BME280;70664;51.472;5.712;2023-07-20T07:33:23;101380.88;;;21.97;56.53
42105;BME280;70664;51.472;5.712;2023-07-20T07:35:50;101384.34;;;21.97;56.61
42105;BME280;70664;51.472;5.712;2023-07-20T07:38:19;101383.44;;;21.98;56.62
42105;BME280;70664;51.472;5.712;2023-07-20T07:40:45;101379.06;;;21.99;57.03
42105;BME280;70664;51.472;5.712;2023-07-20T07:43:11;101384.28;;;21.99;57.27
42105;BME280;70664;51.472;5.712;2023-07-20T07:45:37;101386.00;;;22.00;56.97
42105;BME280;70664;51.472;5.712;2023-07-20T07:48:04;101394.72;;;22.00;57.21
42105;BME280;70664;51.472;5.712;2023-07-20T07:50:31;101397.38;;;21.99;57.20
42105;BME280;70664;51.472;5.712;2023-07-20T07:52:57;101398.25;;;21.99;55.91
42105;BME280;70664;51.472;5.712;2023-07-20T07:55:24;101400.00;;;21.99;56.90
42105;BME280;70664;51.472;5.712;2023-07-20T07:57:52;101407.81;;;22.00;56.99
42105;BME280;70664;51.472;5.712;2023-07-20T08:00:18;101412.91;;;22.04;56.68
42105;BME280;70664;51.472;5.712;2023-07-20T08:02:46;101405.94;;;22.04;56.95
42105;BME280;70664;51.472;5.712;2023-07-20T08:05:14;101412.06;;;22.03;56.88
42105;BME280;70664;51.472;5.712;2023-07-20T08:07:40;101412.16;;;22.02;57.09
42105;BME280;70664;51.472;5.712;2023-07-20T08:10:07;101408.66;;;22.01;57.52
42105;BME280;70664;51.472;5.712;2023-07-20T08:12:32;101411.97;;;22.06;56.65
42105;BME280;70664;51.472;5.712;2023-07-20T08:14:58;101404.13;;;22.06;57.13
42105;BME280;70664;51.472;5.712;2023-07-20T08:17:24;101405.97;;;22.03;57.29
42105;BME280;70664;51.472;5.712;2023-07-20T08:19:50;101412.78;;;22.08;57.04
42105;BME280;70664;51.472;5.712;2023-07-20T08:22:16;101414.59;;;22.06;56.92
42105;BME280;70664;51.472;5.712;2023-07-20T08:24:43;101412.88;;;22.05;57.00
42105;BME280;70664;51.472;5.712;2023-07-20T08:27:09;101401.53;;;22.05;57.15
42105;BME280;70664;51.472;5.712;2023-07-20T08:29:35;101406.78;;;22.05;57.22
42105;BME280;70664;51.472;5.712;2023-07-20T08:32:02;101412.88;;;22.05;57.18
42105;BME280;70664;51.472;5.712;2023-07-20T08:34:30;101406.72;;;22.06;56.89
42105;BME280;70664;51.472;5.712;2023-07-20T08:36:56;101408.53;;;22.04;57.17
42105;BME280;70664;51.472;5.712;2023-07-20T08:39:23;101413.72;;;22.06;57.12
42105;BME280;70664;51.472;5.712;2023-07-20T08:41:50;101407.63;;;22.05;56.99
42105;BME280;70664;51.472;5.712;2023-07-20T08:44:17;101403.31;;;22.04;57.20
42105;BME280;70664;51.472;5.712;2023-07-20T08:46:44;101405.06;;;22.04;57.14
42105;BME280;70664;51.472;5.712;2023-07-20T08:49:11;101410.25;;;22.05;57.21
42105;BME280;70664;51.472;5.712;2023-07-20T08:51:37;101402.41;;;22.05;57.29
42105;BME280;70664;51.472;5.712;2023-07-20T08:54:04;101398.06;;;22.04;57.04
42105;BME280;70664;51.472;5.712;2023-07-20T08:56:33;101404.16;;;22.05;57.15
42105;BME280;70664;51.472;5.712;2023-07-20T08:58:59;101398.13;;;22.03;57.62
42105;BME280;70664;51.472;5.712;2023-07-20T09:01:28;101395.56;;;22.01;57.58
42105;BME280;70664;51.472;5.712;2023-07-20T09:03:55;101399.97;;;22.00;57.43
42105;BME280;70664;51.472;5.712;2023-07-20T09:06:22;101395.78;;;21.95;53.89
42105;BME280;70664;51.472;5.712;2023-07-20T09:08:48;101395.16;;;21.88;53.11
42105;BME280;70664;51.472;5.712;2023-07-20T09:11:14;101386.66;;;21.81;52.87
42105;BME280;70664;51.472;5.712;2023-07-20T09:13:40;101398.06;;;21.79;52.73
42105;BME280;70664;51.472;5.712;2023-07-20T09:16:06;101386.66;;;21.81;52.41
42105;BME280;70664;51.472;5.712;2023-07-20T09:18:32;101394.25;;;21.89;52.65
42105;BME280;70664;51.472;5.712;2023-07-20T09:21:04;101388.81;;;21.94;53.04
42105;BME280;70664;51.472;5.712;2023-07-20T09:23:32;101387.00;;;21.96;53.24
42105;BME280;70664;51.472;5.712;2023-07-20T09:25:58;101390.44;;;21.98;53.54
42105;BME280;70664;51.472;5.712;2023-07-20T09:28:24;101386.91;;;21.99;53.81
42105;BME280;70664;51.472;5.712;2023-07-20T09:30:50;101388.63;;;22.00;54.58
42105;BME280;70664;51.472;5.712;2023-07-20T09:33:22;101387.78;;;21.99;54.94
42105;BME280;70664;51.472;5.712;2023-07-20T09:35:48;101385.09;;;22.01;55.06
42105;BME280;70664;51.472;5.712;2023-07-20T09:38:15;101384.25;;;22.00;55.08
42105;BME280;70664;51.472;5.712;2023-07-20T09:40:42;101382.47;;;22.01;55.22
42105;BME280;70664;51.472;5.712;2023-07-20T09:43:09;101377.22;;;22.01;55.53
42105;BME280;70664;51.472;5.712;2023-07-20T09:45:42;101383.28;;;22.03;55.19
42105;BME280;70664;51.472;5.712;2023-07-20T09:48:10;101377.16;;;22.03;53.51
42105;BME280;70664;51.472;5.712;2023-07-20T09:50:41;101378.94;;;22.02;52.37
42105;BME280;70664;51.472;5.712;2023-07-20T09:53:11;101373.81;;;21.99;52.21
42105;BME280;70664;51.472;5.712;2023-07-20T09:55:41;101378.25;;;21.97;51.12
42105;BME280;70664;51.472;5.712;2023-07-20T09:58:09;101368.66;;;21.97;51.05
42105;BME280;70664;51.472;5.712;2023-07-20T10:00:37;101364.31;;;21.96;50.41
42105;BME280;70664;51.472;5.712;2023-07-20T10:03:05;101360.00;;;21.95;51.34
42105;BME280;70664;51.472;5.712;2023-07-20T10:05:37;101359.09;;;21.96;51.54
42105;BME280;70664;51.472;5.712;2023-07-20T10:08:11;101368.66;;;21.97;51.89
42105;BME280;70664;51.472;5.712;2023-07-20T10:10:40;101366.06;;;21.96;50.66
42105;BME280;70664;51.472;5.712;2023-07-20T10:13:10;101367.78;;;21.97;51.18
42105;BME280;70664;51.472;5.712;2023-07-20T10:16:11;101358.19;;;21.97;51.60
42105;BME280;70664;51.472;5.712;2023-07-20T10:19:00;101361.63;;;21.98;51.70
42105;BME280;70664;51.472;5.712;2023-07-20T10:21:27;101366.03;;;21.97;51.54
42105;BME280;70664;51.472;5.712;2023-07-20T10:23:56;101353.84;;;21.96;50.38
42105;BME280;70664;51.472;5.712;2023-07-20T10:26:23;101354.75;;;21.95;49.27
42105;BME280;70664;51.472;5.712;2023-07-20T10:28:49;101354.78;;;21.94;48.43
42105;BME280;70664;51.472;5.712;2023-07-20T10:31:15;101356.56;;;21.93;49.09
42105;BME280;70664;51.472;5.712;2023-07-20T10:33:43;101358.28;;;21.94;49.41
42105;BME280;70664;51.472;5.712;2023-07-20T10:36:10;101359.22;;;21.92;49.54
42105;BME280;70664;51.472;5.712;2023-07-20T10:41:39;101350.53;;;21.91;50.06
42105;BME280;70664;51.472;5.712;2023-07-20T10:44:09;101359.19;;;21.93;50.25
42105;BME280;70664;51.472;5.712;2023-07-20T10:49:07;101344.31;;;21.94;49.29
42105;BME280;70664;51.472;5.712;2023-07-20T10:51:44;101339.09;;;21.94;49.63
42105;BME280;70664;51.472;5.712;2023-07-20T10:56:43;101331.31;;;21.92;50.40
42105;BME280;70664;51.472;5.712;2023-07-20T11:01:49;101335.66;;;21.92;50.89
42105;BME280;70664;51.472;5.712;2023-07-20T11:04:16;101328.63;;;21.94;50.52
42105;BME280;70664;51.472;5.712;2023-07-20T11:06:46;101335.56;;;21.95;51.19
42105;BME280;70664;51.472;5.712;2023-07-20T11:09:14;101333.84;;;21.94;50.63
42105;BME280;70664;51.472;5.712;2023-07-20T11:11:46;101333.81;;;21.95;50.24
42105;BME280;70664;51.472;5.712;2023-07-20T11:14:26;101329.50;;;21.94;49.60
42105;BME280;70664;51.472;5.712;2023-07-20T11:16:52;101330.31;;;21.95;49.69
42105;BME280;70664;51.472;5.712;2023-07-20T11:19:21;101329.50;;;21.94;50.26
42105;BME280;70664;51.472;5.712;2023-07-20T11:21:54;101326.88;;;21.94;50.74
42105;BME280;70664;51.472;5.712;2023-07-20T11:24:21;101325.16;;;21.93;50.20
42105;BME280;70664;51.472;5.712;2023-07-20T11:26:53;101319.94;;;21.93;50.01
42105;BME280;70664;51.472;5.712;2023-07-20T11:29:21;101318.25;;;21.91;49.76
42105;BME280;70664;51.472;5.712;2023-07-20T11:31:48;101313.03;;;21.91;49.74
42105;BME280;70664;51.472;5.712;2023-07-20T11:34:20;101310.41;;;21.91;49.42
42105;BME280;70664;51.472;5.712;2023-07-20T11:36:49;101301.63;;;21.92;49.80
42105;BME280;70664;51.472;5.712;2023-07-20T11:39:21;101303.34;;;21.93;49.93
42105;BME280;70664;51.472;5.712;2023-07-20T11:41:53;101306.84;;;21.93;50.29
42105;BME280;70664;51.472;5.712;2023-07-20T11:44:26;101300.69;;;21.94;50.08
42105;BME280;70664;51.472;5.712;2023-07-20T11:47:05;101293.44;;;22.01;48.31
42105;BME280;70664;51.472;5.712;2023-07-20T11:49:43;101300.47;;;22.00;47.79
42105;BME280;70664;51.472;5.712;2023-07-20T11:52:16;101293.44;;;22.01;48.35
42105;BME280;70664;51.472;5.712;2023-07-20T11:54:43;101300.47;;;22.00;48.38
42105;BME280;70664;51.472;5.712;2023-07-20T11:57:19;101300.28;;;22.05;48.79
42105;BME280;70664;51.472;5.712;2023-07-20T11:59:56;101302.09;;;22.03;47.92
42105;BME280;70664;51.472;5.712;2023-07-20T12:02:23;101295.97;;;22.04;47.78
42105;BME280;70664;51.472;5.712;2023-07-20T12:04:52;101298.56;;;22.04;48.39
42105;BME280;70664;51.472;5.712;2023-07-20T12:07:19;101294.25;;;22.03;48.29
42105;BME280;70664;51.472;5.712;2023-07-20T12:10:05;101298.75;;;21.99;47.74
42105;BME280;70664;51.472;5.712;2023-07-20T12:12:42;101296.13;;;21.99;48.05
42105;BME280;70664;51.472;5.712;2023-07-20T12:15:30;101298.63;;;22.03;48.25
42105;BME280;70664;51.472;5.712;2023-07-20T12:18:01;101303.81;;;22.04;48.31
42105;BME280;70664;51.472;5.712;2023-07-20T12:20:36;101297.56;;;22.08;48.52
42105;BME280;70664;51.472;5.712;2023-07-20T12:23:12;101291.41;;;22.09;48.36
42105;BME280;70664;51.472;5.712;2023-07-20T12:25:46;101291.34;;;22.11;48.27
42105;BME280;70664;51.472;5.712;2023-07-20T12:28:15;101290.50;;;22.10;48.74
42105;BME280;70664;51.472;5.712;2023-07-20T12:30:42;101293.94;;;22.11;48.58
42105;BME280;70664;51.472;5.712;2023-07-20T12:33:08;101296.56;;;22.11;49.09
42105;BME280;70664;51.472;5.712;2023-07-20T12:35:34;101287.81;;;22.12;48.82
42105;BME280;70664;51.472;5.712;2023-07-20T12:38:01;101292.09;;;22.14;48.59
42105;BME280;70664;51.472;5.712;2023-07-20T12:40:26;101285.94;;;22.15;48.18
42105;BME280;70664;51.472;5.712;2023-07-20T12:42:52;101288.41;;;22.19;48.20
42105;BME280;70664;51.472;5.712;2023-07-20T12:47:44;101285.75;;;22.20;47.87
42105;BME280;70664;51.472;5.712;2023-07-20T12:50:10;101282.25;;;22.20;48.59
42105;BME280;70664;51.472;5.712;2023-07-20T12:52:38;101286.47;;;22.24;48.50
42105;BME280;70664;51.472;5.712;2023-07-20T12:55:06;101284.78;;;22.23;48.96
42105;BME280;70664;51.472;5.712;2023-07-20T12:57:34;101282.22;;;22.21;49.19
42105;BME280;70664;51.472;5.712;2023-07-20T13:00:05;101278.69;;;22.22;49.65
42105;BME280;70664;51.472;5.712;2023-07-20T13:02:32;101288.25;;;22.23;49.41
42105;BME280;70664;51.472;5.712;2023-07-20T13:04:58;101276.91;;;22.23;49.57
42105;BME280;70664;51.472;5.712;2023-07-20T13:07:33;101282.16;;;22.23;48.34
42105;BME280;70664;51.472;5.712;2023-07-20T13:10:00;101270.84;;;22.22;49.24
42105;BME280;70664;51.472;5.712;2023-07-20T13:12:28;101271.78;;;22.20;47.85